Time;durP1;ratioP1;P1;durP2;ratioP2;P2;SDS_P1;SDS_P2;PMS_P1;PMS_P2;Temp;Humidity;BMP_temperature;BMP_pressure;BME280_temperature;BME280_humidity;BME280_pressure;Samples;Min_cycle;Max_cycle;Signal;HPM_P1;HPM_P2
2023/05/29 00:01:37;;;;;;;3.75;1.63;;;11.50;99.90;;;;;;5044108;28;20056;-83
2023/05/29 00:04:05;;;;;;;2.45;1.20;;;11.50;99.90;;;;;;5058257;28;20048;-83
2023/05/29 00:06:32;;;;;;;2.72;1.40;;;11.50;99.90;;;;;;5059672;28;20048;-82
2023/05/29 00:08:59;;;;;;;3.35;1.52;;;11.50;99.90;;;;;;5043968;28;20141;-82
2023/05/29 00:11:26;;;;;;;3.25;1.20;;;11.40;99.90;;;;;;5041985;28;20136;-82
2023/05/29 00:13:53;;;;;;;4.13;1.55;;;11.40;99.90;;;;;;5060723;28;20094;-82
2023/05/29 00:16:20;;;;;;;2.75;1.45;;;11.40;99.90;;;;;;5061809;28;20506;-83
2023/05/29 00:18:47;;;;;;;2.05;1.17;;;11.30;99.90;;;;;;5059204;28;20083;-83
2023/05/29 00:21:15;;;;;;;1.92;1.00;;;11.30;99.90;;;;;;5044185;28;20631;-83
2023/05/29 00:23:42;;;;;;;2.65;0.90;;;11.30;99.90;;;;;;5060774;28;20040;-83
2023/05/29 00:26:12;;;;;;;2.97;1.20;;;11.30;99.90;;;;;;5024485;28;20052;-83
2023/05/29 00:28:39;;;;;;;2.80;1.23;;;11.30;99.90;;;;;;5023961;28;20111;-83
2023/05/29 00:31:06;;;;;;;3.67;1.40;;;11.20;99.90;;;;;;5024124;28;20091;-83
2023/05/29 00:33:33;;;;;;;3.55;1.27;;;11.20;99.90;;;;;;5022136;28;20049;-83
2023/05/29 00:36:00;;;;;;;2.95;1.23;;;11.10;99.90;;;;;;5044034;28;20060;-83
2023/05/29 00:38:27;;;;;;;2.88;1.35;;;11.10;99.90;;;;;;5026829;28;20072;-83
2023/05/29 00:40:54;;;;;;;3.95;1.27;;;11.10;99.90;;;;;;5043732;28;20051;-83
2023/05/29 00:43:21;;;;;;;2.75;0.93;;;11.00;99.90;;;;;;5043581;28;20056;-84
2023/05/29 00:45:48;;;;;;;3.65;1.25;;;11.00;99.90;;;;;;5042173;28;20134;-83
2023/05/29 00:48:15;;;;;;;4.20;1.30;;;11.00;99.90;;;;;;5040506;28;20127;-83
2023/05/29 00:50:43;;;;;;;3.38;1.75;;;10.90;99.90;;;;;;5023438;28;20044;-83
2023/05/29 00:53:11;;;;;;;4.90;2.10;;;10.90;99.90;;;;;;5043998;28;20429;-83
2023/05/29 00:55:38;;;;;;;6.22;1.83;;;10.90;99.90;;;;;;5042697;28;20052;-84
2023/05/29 00:58:04;;;;;;;3.42;1.23;;;10.80;99.90;;;;;;5024451;28;20076;-83
2023/05/29 01:00:33;;;;;;;3.95;1.20;;;10.90;99.90;;;;;;5044080;28;20181;-83
2023/05/29 01:03:02;;;;;;;3.40;1.58;;;10.80;99.90;;;;;;5042992;28;20575;-83
2023/05/29 01:05:30;;;;;;;5.55;1.38;;;10.70;99.90;;;;;;5028245;28;20102;-83
2023/05/29 01:07:57;;;;;;;4.95;1.73;;;10.70;99.90;;;;;;5044577;28;20106;-84
2023/05/29 01:10:25;;;;;;;2.50;1.30;;;10.70;99.90;;;;;;5044280;28;20048;-83
2023/05/29 01:13:31;;;;;;;5.18;1.40;;;10.70;99.90;;;;;;5060322;28;20044;-83
2023/05/29 01:16:04;;;;;;;2.28;1.25;;;10.70;99.90;;;;;;5046094;28;20045;-84
2023/05/29 01:18:51;;;;;;;2.88;1.20;;;10.70;99.90;;;;;;5042729;28;20071;-83
2023/05/29 01:21:26;;;;;;;2.42;1.13;;;10.70;99.90;;;;;;5045591;28;20128;-84
2023/05/29 01:23:59;;;;;;;3.13;1.02;;;10.70;99.90;;;;;;5059993;28;20099;-83
2023/05/29 01:26:51;;;;;;;4.03;1.50;;;10.60;99.90;;;;;;5025168;28;20107;-83
2023/05/29 01:29:23;;;;;;;6.03;2.00;;;10.70;99.90;;;;;;5040899;28;20128;-83
2023/05/29 01:31:50;;;;;;;4.07;1.40;;;10.60;99.90;;;;;;5042960;28;20496;-82
2023/05/29 01:34:17;;;;;;;3.80;1.33;;;10.60;99.90;;;;;;5057080;28;20616;-82
2023/05/29 01:36:46;;;;;;;3.28;1.15;;;10.50;99.90;;;;;;5062784;28;20061;-82
2023/05/29 01:39:13;;;;;;;3.47;1.52;;;10.60;99.90;;;;;;5064570;28;20056;-82
2023/05/29 01:41:40;;;;;;;4.35;2.17;;;10.50;99.90;;;;;;5053151;28;20052;-82
2023/05/29 01:44:11;;;;;;;4.30;1.45;;;10.50;99.90;;;;;;5054637;28;20079;-81
2023/05/29 01:46:38;;;;;;;3.75;1.48;;;10.50;99.90;;;;;;5045073;28;20053;-83
2023/05/29 01:49:05;;;;;;;3.78;1.30;;;10.50;99.90;;;;;;5027398;28;20045;-82
2023/05/29 01:51:32;;;;;;;2.50;1.15;;;10.40;99.90;;;;;;5028430;28;20061;-81
2023/05/29 01:54:02;;;;;;;3.28;1.38;;;10.40;99.90;;;;;;5046298;28;20052;-82
2023/05/29 01:56:29;;;;;;;4.40;1.15;;;10.50;99.90;;;;;;5037775;28;20048;-82
2023/05/29 01:58:56;;;;;;;2.40;1.13;;;10.40;99.90;;;;;;5072125;28;20044;-83
2023/05/29 02:01:23;;;;;;;2.92;1.30;;;10.40;99.90;;;;;;5057531;28;20052;-83
2023/05/29 02:03:53;;;;;;;3.97;1.40;;;10.40;99.90;;;;;;5055398;28;20040;-82
2023/05/29 02:06:20;;;;;;;5.13;1.92;;;10.40;99.90;;;;;;5030711;28;20049;-82
2023/05/29 02:08:47;;;;;;;4.45;1.50;;;10.30;99.90;;;;;;5049799;28;20110;-83
2023/05/29 02:11:14;;;;;;;3.40;1.40;;;10.30;99.90;;;;;;5038061;28;20056;-82
2023/05/29 02:13:41;;;;;;;3.97;1.38;;;10.30;99.90;;;;;;5043604;28;20254;-82
2023/05/29 02:16:08;;;;;;;3.15;1.13;;;10.30;99.90;;;;;;5031463;28;20107;-82
2023/05/29 02:18:35;;;;;;;3.90;1.50;;;10.20;99.90;;;;;;5031308;28;20056;-84
2023/05/29 02:21:02;;;;;;;4.28;1.27;;;10.20;99.90;;;;;;5025215;28;20053;-82
2023/05/29 02:23:30;;;;;;;3.22;1.63;;;10.20;99.90;;;;;;5066640;28;20048;-83
2023/05/29 02:25:57;;;;;;;4.18;1.38;;;10.10;99.90;;;;;;5066815;28;20059;-83
2023/05/29 02:28:24;;;;;;;5.82;1.52;;;10.10;99.90;;;;;;5065314;28;20110;-82
2023/05/29 02:30:52;;;;;;;4.60;1.52;;;10.10;99.90;;;;;;5049679;28;20112;-82
2023/05/29 02:33:19;;;;;;;2.50;1.00;;;10.10;99.90;;;;;;5028549;28;20066;-83
2023/05/29 02:35:46;;;;;;;2.38;1.00;;;10.10;99.90;;;;;;5045062;28;20111;-83
2023/05/29 02:38:13;;;;;;;3.63;1.13;;;10.10;99.90;;;;;;5012836;28;20049;-82
2023/05/29 02:40:40;;;;;;;1.77;1.00;;;10.10;99.90;;;;;;5029443;28;20538;-82
2023/05/29 02:43:08;;;;;;;2.95;1.25;;;10.10;99.90;;;;;;5054089;28;20044;-82
2023/05/29 02:45:35;;;;;;;3.38;1.30;;;10.00;99.90;;;;;;5048934;28;20079;-82
2023/05/29 02:48:03;;;;;;;4.80;1.30;;;10.00;99.90;;;;;;5059661;28;20041;-82
2023/05/29 02:50:30;;;;;;;3.15;1.30;;;10.00;99.90;;;;;;5031997;28;20055;-82
2023/05/29 02:52:57;;;;;;;3.50;1.38;;;9.90;99.90;;;;;;5065987;28;20074;-82
2023/05/29 02:55:25;;;;;;;3.45;1.15;;;9.90;99.90;;;;;;5065355;28;20048;-82
2023/05/29 02:57:55;;;;;;;2.88;1.30;;;9.80;99.90;;;;;;5027999;28;20052;-82
2023/05/29 03:00:21;;;;;;;2.42;1.08;;;9.80;99.90;;;;;;5045500;28;20155;-83
2023/05/29 03:02:48;;;;;;;2.55;1.10;;;9.80;99.90;;;;;;5028048;28;20140;-82
2023/05/29 03:05:17;;;;;;;2.97;0.90;;;9.80;99.90;;;;;;5027436;28;20441;-82
2023/05/29 03:07:44;;;;;;;2.63;1.25;;;9.80;99.90;;;;;;5061144;28;20044;-83
2023/05/29 03:10:11;;;;;;;3.08;1.17;;;9.70;99.90;;;;;;5061857;28;20156;-82
2023/05/29 03:12:39;;;;;;;2.72;1.00;;;9.70;99.90;;;;;;5053203;28;20076;-82
2023/05/29 03:15:07;;;;;;;2.75;1.02;;;9.70;99.90;;;;;;5066223;28;20568;-82
2023/05/29 03:17:36;;;;;;;2.35;1.13;;;9.60;99.90;;;;;;5064819;28;20544;-82
2023/05/29 03:20:05;;;;;;;3.30;1.23;;;9.60;99.90;;;;;;5064824;28;20143;-82
2023/05/29 03:22:33;;;;;;;4.65;1.35;;;9.60;99.90;;;;;;5048968;28;20855;-83
2023/05/29 03:25:00;;;;;;;2.47;1.50;;;9.60;99.90;;;;;;5066265;28;20052;-82
2023/05/29 03:27:29;;;;;;;3.35;1.27;;;9.60;99.90;;;;;;5064461;28;20547;-82
2023/05/29 03:29:56;;;;;;;3.63;1.10;;;9.50;99.90;;;;;;5039347;28;20102;-83
2023/05/29 03:32:22;;;;;;;3.38;1.00;;;9.50;99.90;;;;;;5044392;28;20091;-82
2023/05/29 03:34:49;;;;;;;2.15;1.17;;;9.50;99.90;;;;;;5064333;28;20051;-82
2023/05/29 03:37:16;;;;;;;2.58;1.10;;;9.40;99.90;;;;;;5047943;28;20106;-82
2023/05/29 03:39:43;;;;;;;1.92;0.90;;;9.40;99.90;;;;;;5064404;28;20044;-82
2023/05/29 03:42:10;;;;;;;2.30;1.05;;;9.40;99.90;;;;;;5064300;28;20496;-82
2023/05/29 03:44:37;;;;;;;3.33;1.23;;;9.40;99.90;;;;;;5046221;28;20106;-82
2023/05/29 03:47:04;;;;;;;2.78;1.58;;;9.30;99.90;;;;;;5045332;28;20055;-82
2023/05/29 03:49:30;;;;;;;3.75;1.30;;;9.30;99.90;;;;;;5042935;28;20126;-82
2023/05/29 03:51:57;;;;;;;1.80;1.13;;;9.30;99.90;;;;;;5028366;28;20139;-82
2023/05/29 03:54:25;;;;;;;3.75;1.23;;;9.30;99.90;;;;;;5041051;28;20049;-82
2023/05/29 03:56:52;;;;;;;2.40;1.00;;;9.30;99.90;;;;;;5055701;28;20052;-82
2023/05/29 03:59:19;;;;;;;3.95;1.48;;;9.30;99.90;;;;;;5064866;28;20118;-82
2023/05/29 04:01:45;;;;;;;3.15;1.00;;;9.30;99.90;;;;;;5066462;28;20044;-82
2023/05/29 04:04:12;;;;;;;1.80;1.02;;;9.30;99.90;;;;;;5032808;28;20057;-82
2023/05/29 04:06:40;;;;;;;2.53;1.30;;;9.30;99.90;;;;;;5028158;28;20045;-82
2023/05/29 04:09:06;;;;;;;2.10;0.93;;;9.40;99.90;;;;;;5030845;28;20072;-82
2023/05/29 04:11:36;;;;;;;4.50;1.48;;;9.30;99.90;;;;;;5032096;28;20103;-82
2023/05/29 04:14:03;;;;;;;2.20;1.00;;;9.30;99.90;;;;;;5044690;28;20113;-82
2023/05/29 04:16:30;;;;;;;4.03;1.10;;;9.30;99.90;;;;;;5066300;28;20056;-85
2023/05/29 04:18:57;;;;;;;4.97;1.30;;;9.30;99.90;;;;;;5069656;28;20527;-82
2023/05/29 04:21:24;;;;;;;4.00;1.40;;;9.20;99.90;;;;;;5085780;28;20048;-82
2023/05/29 04:23:52;;;;;;;5.10;1.30;;;9.20;99.90;;;;;;5061339;28;20224;-82
2023/05/29 04:26:20;;;;;;;3.42;1.30;;;9.20;99.90;;;;;;5065471;28;20056;-83
2023/05/29 04:28:49;;;;;;;5.43;2.33;;;9.20;99.90;;;;;;5069942;28;20192;-83
2023/05/29 04:31:17;;;;;;;4.38;1.50;;;9.20;99.90;;;;;;5070864;28;20044;-83
2023/05/29 04:33:45;;;;;;;2.63;1.25;;;9.30;99.90;;;;;;5064517;28;20106;-82
2023/05/29 04:36:13;;;;;;;2.58;1.05;;;9.30;99.90;;;;;;5070255;28;20057;-82
2023/05/29 04:38:40;;;;;;;4.00;1.05;;;9.40;99.90;;;;;;5080795;28;20256;-82
2023/05/29 04:41:08;;;;;;;2.50;1.20;;;9.50;99.90;;;;;;5071625;28;20478;-83
2023/05/29 04:43:36;;;;;;;3.03;1.20;;;9.60;99.90;;;;;;5051878;28;20059;-82
2023/05/29 04:46:03;;;;;;;2.78;1.08;;;9.60;99.90;;;;;;5069917;28;20086;-83
2023/05/29 04:48:31;;;;;;;4.90;1.50;;;9.60;99.90;;;;;;5067525;28;20540;-83
2023/05/29 04:50:59;;;;;;;2.90;1.13;;;9.60;99.90;;;;;;5051606;28;20048;-81
2023/05/29 04:53:26;;;;;;;2.03;1.00;;;9.70;99.90;;;;;;5066538;28;20136;-83
2023/05/29 04:55:53;;;;;;;2.65;1.00;;;9.80;99.90;;;;;;5067125;28;20504;-83
2023/05/29 04:58:21;;;;;;;3.30;1.23;;;9.80;99.90;;;;;;5066633;28;20480;-83
2023/05/29 05:00:48;;;;;;;4.03;1.25;;;9.80;99.90;;;;;;5032600;28;20063;-83
2023/05/29 05:03:16;;;;;;;4.68;1.85;;;9.80;99.90;;;;;;5059558;28;20056;-83
2023/05/29 05:05:44;;;;;;;2.63;1.25;;;9.90;99.90;;;;;;5060798;28;20486;-82
2023/05/29 05:08:11;;;;;;;4.43;1.25;;;9.90;99.90;;;;;;5024298;28;20057;-82
2023/05/29 05:10:38;;;;;;;5.88;1.42;;;10.00;99.90;;;;;;5042378;28;20049;-81
2023/05/29 05:13:07;;;;;;;2.97;1.42;;;10.00;99.90;;;;;;5050541;28;20048;-82
2023/05/29 05:15:34;;;;;;;2.42;1.20;;;10.00;99.90;;;;;;5060618;28;20403;-82
2023/05/29 05:18:01;;;;;;;3.80;2.08;;;10.10;99.90;;;;;;5043224;28;20071;-82
2023/05/29 05:20:28;;;;;;;3.78;1.40;;;10.10;99.90;;;;;;5062090;28;20140;-82
2023/05/29 05:22:55;;;;;;;2.75;1.55;;;10.20;99.90;;;;;;5060564;28;20114;-81
2023/05/29 05:25:22;;;;;;;5.00;1.45;;;10.30;99.90;;;;;;5044113;28;20526;-82
2023/05/29 05:27:49;;;;;;;3.53;1.48;;;10.40;99.90;;;;;;5059327;28;20044;-81
2023/05/29 05:30:16;;;;;;;2.38;1.25;;;10.50;99.90;;;;;;5060061;28;20049;-82
2023/05/29 05:32:43;;;;;;;3.63;1.50;;;10.60;99.90;;;;;;5058110;28;20057;-82
2023/05/29 05:35:11;;;;;;;2.47;1.30;;;10.60;99.90;;;;;;5052218;28;20129;-83
2023/05/29 05:37:38;;;;;;;3.88;1.20;;;10.60;99.90;;;;;;5043550;28;20067;-83
2023/05/29 05:40:06;;;;;;;2.22;1.10;;;10.70;99.90;;;;;;5050593;28;20071;-82
2023/05/29 05:42:33;;;;;;;2.67;1.52;;;10.70;99.90;;;;;;5053838;28;20060;-83
2023/05/29 05:45:00;;;;;;;3.03;1.63;;;10.70;99.90;;;;;;5036866;28;20090;-82
2023/05/29 05:47:27;;;;;;;3.38;1.38;;;10.70;99.90;;;;;;5050355;28;20135;-83
2023/05/29 05:49:55;;;;;;;4.15;1.50;;;10.80;99.90;;;;;;5034336;28;20141;-83
2023/05/29 05:52:23;;;;;;;3.97;1.80;;;10.80;99.90;;;;;;5031930;28;20049;-85
2023/05/29 05:54:50;;;;;;;5.22;2.10;;;10.80;99.90;;;;;;5049669;28;20056;-83
2023/05/29 05:57:17;;;;;;;3.22;1.52;;;10.80;99.90;;;;;;5051217;28;20431;-83
2023/05/29 05:59:44;;;;;;;3.70;1.50;;;10.80;99.90;;;;;;5050833;28;20514;-83
2023/05/29 06:02:11;;;;;;;6.03;1.73;;;10.80;99.90;;;;;;5035698;28;20048;-83
2023/05/29 06:04:38;;;;;;;4.63;1.70;;;10.80;99.90;;;;;;5032646;28;20051;-83
2023/05/29 06:07:06;;;;;;;2.22;1.50;;;10.90;99.90;;;;;;5050989;28;20071;-83
2023/05/29 06:09:33;;;;;;;3.40;1.33;;;11.00;99.90;;;;;;5037140;28;20107;-82
2023/05/29 06:12:00;;;;;;;3.78;1.17;;;11.20;99.90;;;;;;5051718;28;20056;-82
2023/05/29 06:14:27;;;;;;;1.83;0.82;;;11.30;99.90;;;;;;5051212;28;20118;-83
2023/05/29 06:16:55;;;;;;;3.85;1.48;;;11.30;99.90;;;;;;5036822;28;20056;-84
2023/05/29 06:19:23;;;;;;;3.35;1.30;;;11.50;99.90;;;;;;5043602;28;20139;-83
2023/05/29 06:21:50;;;;;;;2.72;1.20;;;11.60;99.90;;;;;;5049860;28;20111;-83
2023/05/29 06:24:18;;;;;;;1.92;0.90;;;11.70;99.90;;;;;;5017639;28;20639;-83
2023/05/29 06:26:45;;;;;;;2.63;1.33;;;11.80;99.90;;;;;;5054882;28;20053;-82
2023/05/29 06:29:13;;;;;;;2.83;1.70;;;11.80;99.90;;;;;;5052194;28;20576;-82
2023/05/29 06:31:40;;;;;;;4.43;1.52;;;11.80;99.90;;;;;;5051273;28;20071;-83
2023/05/29 06:34:07;;;;;;;3.05;1.30;;;11.90;99.90;;;;;;5032817;28;20064;-82
2023/05/29 06:36:35;;;;;;;4.30;1.35;;;11.90;99.90;;;;;;5033175;28;20049;-84
2023/05/29 06:39:02;;;;;;;2.17;1.10;;;12.00;99.90;;;;;;5042095;28;20087;-82
2023/05/29 06:41:29;;;;;;;2.80;1.17;;;12.00;99.90;;;;;;5043243;28;20130;-82
2023/05/29 06:43:56;;;;;;;3.20;1.10;;;12.10;99.90;;;;;;5042327;28;20065;-83
2023/05/29 06:46:23;;;;;;;2.15;1.00;;;12.20;99.90;;;;;;5037282;28;20137;-82
2023/05/29 06:48:49;;;;;;;3.05;1.33;;;12.30;99.90;;;;;;5043840;28;20149;-82
2023/05/29 06:51:18;;;;;;;1.58;1.13;;;12.30;99.90;;;;;;5041968;28;20061;-83
2023/05/29 06:53:45;;;;;;;2.38;1.10;;;12.40;99.90;;;;;;5054128;28;20581;-84
2023/05/29 06:56:12;;;;;;;3.95;1.73;;;12.40;99.90;;;;;;5047531;28;20044;-83
2023/05/29 06:58:39;;;;;;;2.05;1.05;;;12.50;99.90;;;;;;5047948;28;20235;-84
2023/05/29 07:01:07;;;;;;;3.45;1.60;;;12.60;99.90;;;;;;5045134;28;20094;-82
2023/05/29 07:03:35;;;;;;;3.40;2.10;;;12.70;99.90;;;;;;5047012;28;20162;-83
2023/05/29 07:06:03;;;;;;;3.90;1.75;;;12.80;99.90;;;;;;5034630;28;20054;-85
2023/05/29 07:08:31;;;;;;;3.97;1.73;;;12.90;99.90;;;;;;5033324;28;20057;-84
2023/05/29 07:10:57;;;;;;;4.15;1.95;;;12.90;99.90;;;;;;5034422;28;20048;-84
2023/05/29 07:13:25;;;;;;;4.28;1.77;;;12.90;99.90;;;;;;5035581;28;20041;-82
2023/05/29 07:15:51;;;;;;;5.43;1.58;;;12.90;99.90;;;;;;5051003;28;20139;-82
2023/05/29 07:18:18;;;;;;;3.22;1.50;;;13.10;99.90;;;;;;5050212;28;20049;-85
2023/05/29 07:20:46;;;;;;;3.03;1.17;;;13.20;99.90;;;;;;5035852;28;20128;-84
2023/05/29 07:23:13;;;;;;;3.25;1.30;;;13.40;99.90;;;;;;5048422;28;20171;-85
2023/05/29 07:25:40;;;;;;;3.22;1.55;;;13.50;99.90;;;;;;5036300;28;20072;-83
2023/05/29 07:28:07;;;;;;;4.00;1.38;;;13.60;99.90;;;;;;5049539;28;20152;-83
2023/05/29 07:30:47;;;;;;;4.28;1.98;;;13.70;99.90;;;;;;5024753;28;20056;-83
2023/05/29 07:33:15;;;;;;;3.80;1.45;;;13.70;99.90;;;;;;5052242;28;20060;-85
2023/05/29 07:35:42;;;;;;;3.20;1.63;;;13.80;99.90;;;;;;5049229;28;20048;-84
2023/05/29 07:38:09;;;;;;;3.80;1.50;;;13.70;99.90;;;;;;5031792;28;20049;-83
2023/05/29 07:40:36;;;;;;;3.05;1.10;;;13.70;99.90;;;;;;5048494;28;20049;-83
2023/05/29 07:43:08;;;;;;;4.15;1.50;;;13.90;99.90;;;;;;5021531;28;20048;-83
2023/05/29 07:45:35;;;;;;;4.10;1.58;;;14.00;99.90;;;;;;5032924;28;20519;-83
2023/05/29 07:48:02;;;;;;;4.25;1.63;;;14.00;99.90;;;;;;5011904;28;20369;-83
2023/05/29 07:50:30;;;;;;;3.72;1.20;;;14.10;99.90;;;;;;5032651;28;20157;-84
2023/05/29 07:52:57;;;;;;;3.03;1.20;;;14.20;99.90;;;;;;5048759;28;20118;-79
2023/05/29 07:55:24;;;;;;;3.33;1.33;;;14.30;99.90;;;;;;5030935;28;20056;-82
2023/05/29 07:57:55;;;;;;;4.60;1.80;;;14.20;99.90;;;;;;5029393;28;20044;-82
2023/05/29 08:00:23;;;;;;;4.10;2.03;;;14.20;99.90;;;;;;5031827;28;20094;-82
2023/05/29 08:02:52;;;;;;;3.72;1.95;;;14.30;99.90;;;;;;5049781;28;20052;-82
2023/05/29 08:05:20;;;;;;;4.50;1.83;;;14.30;99.90;;;;;;5020699;28;20056;-82
2023/05/29 08:07:48;;;;;;;3.78;1.63;;;14.50;99.90;;;;;;5017628;28;20041;-82
2023/05/29 08:10:15;;;;;;;4.18;1.95;;;14.50;99.90;;;;;;5031700;28;20053;-82
2023/05/29 08:12:42;;;;;;;3.17;1.30;;;14.50;99.90;;;;;;5031975;28;20052;-82
2023/05/29 08:15:09;;;;;;;2.90;1.38;;;14.50;99.90;;;;;;5016306;28;20138;-82
2023/05/29 08:17:36;;;;;;;3.75;1.35;;;14.50;99.90;;;;;;5015650;28;20124;-82
2023/05/29 08:20:07;;;;;;;2.67;1.30;;;14.60;99.90;;;;;;5044036;28;20106;-83
2023/05/29 08:22:33;;;;;;;2.53;1.15;;;14.80;99.90;;;;;;5008787;28;20060;-82
2023/05/29 08:25:01;;;;;;;2.33;1.00;;;15.00;99.90;;;;;;5051756;28;20478;-82
2023/05/29 08:27:28;;;;;;;2.00;1.10;;;15.20;99.90;;;;;;5048247;28;20049;-83
2023/05/29 08:29:55;;;;;;;2.97;1.50;;;15.20;99.60;;;;;;5019193;28;20084;-82
2023/05/29 08:32:22;;;;;;;2.58;1.10;;;15.10;99.30;;;;;;5031453;28;20052;-82
2023/05/29 08:34:49;;;;;;;2.88;1.27;;;15.10;99.70;;;;;;5033462;28;20048;-82
2023/05/29 08:37:17;;;;;;;4.97;2.15;;;15.00;99.30;;;;;;5040375;28;20044;-82
2023/05/29 08:39:44;;;;;;;3.25;2.00;;;14.80;99.50;;;;;;5028902;28;20063;-83
2023/05/29 08:42:14;;;;;;;3.25;2.03;;;14.90;99.50;;;;;;5033809;28;20048;-81
2023/05/29 08:44:41;;;;;;;3.22;1.60;;;15.00;99.70;;;;;;5012026;28;20124;-83
2023/05/29 08:47:11;;;;;;;3.80;1.63;;;15.10;99.20;;;;;;5028323;28;20132;-82
2023/05/29 08:49:42;;;;;;;2.75;1.40;;;15.20;98.90;;;;;;5009162;28;20060;-82
2023/05/29 08:52:14;;;;;;;3.30;1.55;;;15.30;99.30;;;;;;5040008;28;20142;-83
2023/05/29 08:54:41;;;;;;;2.03;1.00;;;15.50;98.80;;;;;;5029824;28;20057;-82
2023/05/29 08:57:10;;;;;;;3.58;1.50;;;15.70;98.50;;;;;;5026630;28;20071;-83
2023/05/29 08:59:40;;;;;;;3.45;1.77;;;15.80;98.20;;;;;;5018729;28;20115;-84
2023/05/29 09:02:06;;;;;;;3.88;1.80;;;15.70;98.40;;;;;;5030277;28;20060;-83
2023/05/29 09:04:33;;;;;;;2.55;1.27;;;15.60;98.60;;;;;;5044724;28;20094;-84
2023/05/29 09:07:00;;;;;;;2.55;1.17;;;15.60;98.90;;;;;;5034360;28;20044;-80
2023/05/29 09:09:27;;;;;;;2.38;1.10;;;15.80;98.30;;;;;;5048733;28;20084;-83
2023/05/29 09:11:55;;;;;;;3.10;1.48;;;15.80;98.30;;;;;;5015017;28;20493;-83
2023/05/29 09:14:37;;;;;;;3.40;1.65;;;15.70;98.40;;;;;;5044534;28;20060;-83
2023/05/29 09:17:06;;;;;;;3.05;1.10;;;15.60;98.50;;;;;;5042366;28;20056;-81
2023/05/29 09:19:33;;;;;;;3.85;1.30;;;15.40;98.60;;;;;;5022731;28;20220;-82
2023/05/29 09:22:05;;;;;;;3.97;1.23;;;15.30;98.50;;;;;;5040692;28;20516;-81
2023/05/29 09:24:32;;;;;;;2.90;1.20;;;15.20;98.60;;;;;;5060231;28;20127;-82
2023/05/29 09:27:00;;;;;;;3.35;1.13;;;15.30;98.90;;;;;;5042476;28;20338;-82
2023/05/29 09:29:30;;;;;;;4.05;1.50;;;15.50;98.60;;;;;;5009395;28;20041;-81
2023/05/29 09:31:57;;;;;;;2.97;1.38;;;15.60;98.00;;;;;;5040573;28;20151;-82
2023/05/29 09:34:27;;;;;;;3.20;1.40;;;15.50;97.90;;;;;;5036215;28;20667;-82
2023/05/29 09:37:08;;;;;;;4.45;1.50;;;15.50;97.50;;;;;;5032490;28;20045;-81
2023/05/29 09:39:41;;;;;;;3.55;1.30;;;15.40;97.40;;;;;;5046916;28;20060;-83
2023/05/29 09:42:11;;;;;;;3.30;1.73;;;15.50;97.20;;;;;;5056695;28;20115;-82
2023/05/29 09:44:40;;;;;;;3.08;1.35;;;15.80;97.00;;;;;;5057999;28;20052;-82
2023/05/29 09:47:07;;;;;;;2.72;1.27;;;15.90;97.10;;;;;;5062142;28;20083;-82
2023/05/29 09:49:34;;;;;;;4.28;1.70;;;16.00;97.10;;;;;;5027552;28;20132;-82
2023/05/29 09:52:01;;;;;;;2.75;1.25;;;16.00;97.40;;;;;;5025801;28;20067;-82
2023/05/29 09:54:29;;;;;;;3.78;1.33;;;16.30;97.50;;;;;;5036287;28;20489;-82
2023/05/29 09:56:57;;;;;;;3.58;1.60;;;16.40;97.30;;;;;;5026010;28;20195;-82
2023/05/29 09:59:24;;;;;;;2.90;1.13;;;16.40;96.90;;;;;;5025573;28;20460;-82
2023/05/29 10:02:04;;;;;;;3.40;1.30;;;16.40;96.20;;;;;;5025341;28;20154;-83
2023/05/29 10:04:35;;;;;;;2.90;1.40;;;16.50;96.50;;;;;;5040126;28;20388;-82
2023/05/29 10:07:11;;;;;;;2.72;1.35;;;16.60;96.20;;;;;;5036556;28;20049;-82
2023/05/29 10:09:41;;;;;;;4.07;1.30;;;16.70;96.40;;;;;;5041951;28;20467;-82
2023/05/29 10:12:08;;;;;;;3.17;1.48;;;16.80;95.80;;;;;;5010155;28;20657;-82
2023/05/29 10:14:35;;;;;;;3.22;1.40;;;16.80;95.80;;;;;;5040145;28;20048;-81
2023/05/29 10:17:03;;;;;;;4.28;1.60;;;16.80;96.50;;;;;;5024964;28;20084;-82
2023/05/29 10:19:30;;;;;;;3.65;1.50;;;16.80;95.40;;;;;;5023814;28;20206;-81
2023/05/29 10:21:57;;;;;;;4.72;1.55;;;17.10;95.70;;;;;;5009066;28;20049;-82
2023/05/29 10:24:24;;;;;;;3.88;1.90;;;17.50;95.60;;;;;;5055638;28;20339;-82
2023/05/29 10:26:51;;;;;;;2.90;1.35;;;17.70;94.70;;;;;;5024888;28;20073;-82
2023/05/29 10:29:36;;;;;;;3.88;1.30;;;17.90;94.40;;;;;;5023723;28;20056;-82
2023/05/29 10:32:16;;;;;;;4.68;1.75;;;18.20;94.00;;;;;;5009358;28;20535;-82
2023/05/29 10:34:46;;;;;;;4.15;1.50;;;18.30;93.60;;;;;;5033249;28;20083;-80
2023/05/29 10:37:35;;;;;;;3.85;1.38;;;18.40;94.00;;;;;;5042553;28;20065;-82
2023/05/29 10:40:08;;;;;;;3.75;1.55;;;18.40;94.00;;;;;;5040475;28;20614;-82
2023/05/29 10:42:38;;;;;;;3.67;1.52;;;18.60;93.20;;;;;;5040548;28;20188;-84
2023/05/29 10:45:05;;;;;;;4.75;1.80;;;18.70;93.20;;;;;;5060095;28;20064;-82
2023/05/29 10:47:32;;;;;;;2.78;1.35;;;18.80;92.90;;;;;;5026909;28;20049;-82
2023/05/29 10:50:00;;;;;;;3.20;1.40;;;18.70;92.80;;;;;;5026077;28;20079;-82
2023/05/29 10:52:34;;;;;;;3.28;1.90;;;18.50;92.70;;;;;;5027598;28;20057;-84
2023/05/29 10:55:03;;;;;;;2.92;1.30;;;18.20;92.60;;;;;;5043209;28;20059;-82
2023/05/29 10:57:35;;;;;;;3.00;1.35;;;18.10;93.00;;;;;;5024181;28;20389;-82
2023/05/29 11:00:18;;;;;;;3.05;1.50;;;18.10;93.20;;;;;;5024790;28;20055;-81
2023/05/29 11:02:47;;;;;;;4.70;1.58;;;18.10;93.10;;;;;;5030722;28;20456;-82
2023/05/29 11:05:22;;;;;;;3.17;1.42;;;18.20;93.30;;;;;;5058399;28;20504;-82
2023/05/29 11:07:53;;;;;;;3.80;1.50;;;18.40;93.80;;;;;;5023365;28;20408;-82
2023/05/29 11:10:45;;;;;;;2.95;1.42;;;18.80;93.00;;;;;;5007975;28;20717;-82
2023/05/29 11:13:35;;;;;;;3.90;1.67;;;18.90;92.80;;;;;;5025486;28;20507;-82
2023/05/29 11:16:25;;;;;;;3.08;1.35;;;18.70;92.80;;;;;;5043979;28;20535;-80
2023/05/29 11:18:52;;;;;;;3.42;1.48;;;18.50;93.00;;;;;;5058588;28;20141;-81
2023/05/29 11:21:45;;;;;;;5.05;1.65;;;18.50;93.10;;;;;;5026332;28;20052;-81
2023/05/29 11:24:23;;;;;;;3.88;1.70;;;18.10;93.50;;;;;;5059261;28;20067;-82
2023/05/29 11:26:52;;;;;;;3.45;1.38;;;18.20;93.90;;;;;;5043637;28;20056;-81
2023/05/29 11:29:38;;;;;;;3.35;1.27;;;18.30;93.80;;;;;;5043549;28;20083;-82
2023/05/29 11:32:07;;;;;;;2.63;1.58;;;18.80;92.80;;;;;;5042549;28;20075;-81
2023/05/29 11:34:35;;;;;;;3.63;1.83;;;19.10;92.70;;;;;;5041599;28;20710;-82
2023/05/29 11:37:02;;;;;;;3.03;1.58;;;18.90;92.70;;;;;;5022901;28;20048;-82
2023/05/29 11:39:30;;;;;;;4.20;1.70;;;18.90;92.30;;;;;;5023113;28;20056;-81
2023/05/29 11:41:58;;;;;;;3.40;1.48;;;18.60;92.30;;;;;;5007055;28;20080;-82
2023/05/29 11:44:26;;;;;;;2.33;1.30;;;18.80;92.90;;;;;;5022638;28;20121;-81
2023/05/29 11:47:03;;;;;;;2.65;1.40;;;19.10;92.70;;;;;;5038907;28;20052;-82
2023/05/29 11:49:34;;;;;;;3.92;1.60;;;19.30;92.50;;;;;;5005640;28;20057;-81
2023/05/29 11:52:12;;;;;;;3.88;1.30;;;19.10;92.10;;;;;;5026098;28;20095;-81
2023/05/29 11:54:46;;;;;;;2.17;1.10;;;19.40;92.00;;;;;;5038109;28;20049;-83
2023/05/29 11:57:19;;;;;;;2.58;1.70;;;19.70;92.20;;;;;;5029478;28;20140;-81
2023/05/29 11:59:46;;;;;;;3.22;1.65;;;19.80;90.80;;;;;;5039161;28;20116;-82
2023/05/29 12:02:14;;;;;;;1.75;0.90;;;20.10;91.50;;;;;;5038750;28;20491;-82
2023/05/29 12:04:41;;;;;;;6.95;1.13;;;20.40;91.30;;;;;;5050338;28;20135;-82
2023/05/29 12:07:18;;;;;;;4.90;1.83;;;20.30;90.40;;;;;;5042624;28;20258;-82
2023/05/29 12:09:45;;;;;;;3.63;1.48;;;20.00;91.30;;;;;;5025983;28;20052;-83
2023/05/29 12:12:12;;;;;;;3.15;1.48;;;19.70;91.10;;;;;;5042462;28;20299;-82
2023/05/29 12:14:39;;;;;;;3.35;1.60;;;20.10;90.90;;;;;;5038386;28;20060;-82
2023/05/29 12:17:06;;;;;;;4.50;2.03;;;20.70;90.60;;;;;;5021836;28;20610;-82
2023/05/29 12:19:33;;;;;;;3.42;1.60;;;21.20;90.20;;;;;;5020358;28;20145;-82
2023/05/29 12:22:00;;;;;;;4.13;1.42;;;21.70;90.20;;;;;;5039008;28;20114;-82
2023/05/29 12:24:28;;;;;;;3.20;1.73;;;21.80;89.70;;;;;;5058549;28;20118;-82
2023/05/29 12:27:08;;;;;;;2.63;1.10;;;22.00;88.50;;;;;;5044472;28;20053;-82
2023/05/29 12:29:35;;;;;;;2.38;1.08;;;21.80;88.20;;;;;;5025427;28;20052;-82
2023/05/29 12:32:02;;;;;;;2.80;1.42;;;22.00;88.00;;;;;;5041993;28;20052;-82
2023/05/29 12:34:36;;;;;;;3.28;1.63;;;22.30;87.70;;;;;;5040309;28;20060;-82
2023/05/29 12:37:13;;;;;;;2.67;1.50;;;22.20;86.70;;;;;;5017110;28;20080;-81
2023/05/29 12:39:40;;;;;;;3.15;1.40;;;22.30;86.30;;;;;;5022317;28;20106;-82
2023/05/29 12:42:07;;;;;;;3.53;1.40;;;22.00;85.70;;;;;;5051429;28;20052;-82
2023/05/29 12:44:37;;;;;;;2.95;1.33;;;21.70;86.20;;;;;;5058238;28;20080;-82
2023/05/29 12:47:04;;;;;;;3.17;1.60;;;21.50;86.40;;;;;;5021812;28;20053;-82
2023/05/29 12:49:35;;;;;;;2.90;1.30;;;21.10;87.40;;;;;;5037087;28;20056;-82
2023/05/29 12:52:07;;;;;;;3.15;1.40;;;21.10;86.90;;;;;;5005531;28;20126;-81
2023/05/29 12:54:34;;;;;;;;;;;21.50;87.10;;;;;;5049197;28;20051;-81
2023/05/29 12:57:01;;;;;;;3.65;1.40;;;21.60;86.20;;;;;;5058031;28;19920;-81